Aérodrome :
LOGIN :

S'inscrire | Disclaimer

   EN    FR    IT 

 










Légende :    VFR   VFR Marginal   IFR   IFR Intensif   IFR Très Intensif
Visi : 
Plafond : 
>= 8 km
>= 3000ft
5 à 8 km
1000 à 3000 ft
1500m à 5 km
500 à 1000 ft
800 à 1500m
200 à 500 ft
< 800m
< 200 ft
Symboles :   Orages  Brouillard  Fortes neiges  Fortes précipitations  Vent > 20 kt
SIGMETs :   Divers  Orages  Givrage  Turbulence  Onde Orograph.  Cendres Volcan.







- Altitude de l'aérodrome : 59 ft
- Code IATA : TSF


LIPH - Treviso

DERNIER METAR :
  • 200120Z AUTO VRB02KT 9999 BKN150/// 17/14 Q1015

METARs EXPIRÉS :
  • 200050Z AUTO 05011KT 020V080 9999 -RA FEW025/// BKN081/// BKN150/// 17/15 Q1015 RERA
  • 200020Z AUTO 03005KT 310V070 9999 RA FEW029/// BKN082/// 17/15 Q1015
  • 192350Z AUTO 04007KT 010V080 9999 -RA BKN100/// BKN190/// 18/15 Q1015
  • 192320Z AUTO 03007KT 360V070 9999 FEW100/// BKN120/// BKN180/// 18/15 Q1015

TAF TAF LIPH
Valide du 20 à 00h jusqu'au 21 à 00h UTC


192300Z 2000/2024 04008KT 9999 SCT030
TEMPO 2000/2006 TSRA
Pas de NOTAMs connus pour ce terrain.
2 SIGMETs publiés pour la FIR Milano (LIMM) :
 
Orages noyés dans la masse
LIMM SIGMET 12 VALID 192210/200210 LIMM- LIMM MILANO FIR EMBD TS OBS WI N4634 E01027 - N4540 E01016 - N4540 E00856 - N4506 E00848 - N4432 E00955 - N4455 E01133 - N4442 E01313 - N4519 E01257 - N4537 E01358 - N4632 E01342 - N4708 E01213 - N4653 E01036 - N4634 E01027 TOP FL400 STNR NC=
Orages noyés dans la masse
LIMM SIGMET 1 VALID 200210/200610 LIMM- LIMM MILANO FIR EMBD TS OBS WI N4643 E01216 - N4555 E01155 - N4505 E01020 - N4443 E01030 - N4518 E01207 - N4455 E01303 - N4520 E01300 - N4537 E01354 - N4630 E01338 - N4643 E01216 TOP FL320 STNR WKN=



MET'MAP, la Météo Aéronautique d'un coup d'oeil ! - Copyright ORBIFLY Décembre 2007 - Disclaimer

ORBIFLY MET'MAP TEAM :

Programmation & Développement : Alexandra Zaïnal
Conception & Développement : Baudouin d'Aumeries
Co-Programmation & Développement : Marc-Olivier Méhu
Soutien technique & logistique : Manuel Goepfert

Contact : metmap@orbifly.com




SOURCES & CREDITS :

   NOAA